createdAt,value
2022-12-06T00:01:14.784Z,94013.00
2022-12-06T00:03:42.532Z,94009.88
2022-12-06T00:06:11.938Z,93982.34
2022-12-06T00:08:39.801Z,93999.28
2022-12-06T00:11:10.311Z,94011.16
2022-12-06T00:13:37.310Z,94015.84
2022-12-06T00:16:06.032Z,94021.94
2022-12-06T00:18:34.885Z,94014.19
2022-12-06T00:21:15.548Z,94015.28
2022-12-06T00:23:45.815Z,94016.59
2022-12-06T00:26:13.827Z,94019.78
2022-12-06T00:28:40.683Z,94026.84
2022-12-06T00:31:09.700Z,94035.34
2022-12-06T00:33:37.377Z,94029.44
2022-12-06T00:36:06.827Z,94021.41
2022-12-06T00:38:34.979Z,94019.66
2022-12-06T00:41:04.956Z,94018.06
2022-12-06T00:43:32.464Z,94010.72
2022-12-06T00:45:59.865Z,94006.03
2022-12-06T00:48:26.960Z,94007.94
2022-12-06T00:50:53.589Z,94012.72
2022-12-06T00:53:20.346Z,94004.97
2022-12-06T00:55:47.617Z,94006.63
2022-12-06T00:58:14.795Z,94004.69
2022-12-06T01:00:42.058Z,94004.69
2022-12-06T01:03:09.257Z,94017.84
2022-12-06T01:05:47.278Z,94011.47
2022-12-06T01:08:15.658Z,94011.34
2022-12-06T01:10:42.597Z,94010.53
2022-12-06T01:13:09.417Z,94012.28
2022-12-06T01:15:36.938Z,94016.91
2022-12-06T01:18:04.496Z,94006.09
2022-12-06T01:20:31.129Z,94005.16
2022-12-06T01:22:57.891Z,94003.66
2022-12-06T01:25:26.337Z,94001.66
2022-12-06T01:27:53.196Z,94007.25
2022-12-06T01:30:19.907Z,93999.56
2022-12-06T01:32:46.474Z,93994.78
2022-12-06T01:35:13.140Z,93994.94
2022-12-06T01:37:39.864Z,93987.72
2022-12-06T01:40:07.407Z,93985.16
2022-12-06T01:42:34.128Z,93980.09
2022-12-06T01:45:01.922Z,93992.22
2022-12-06T01:47:32.690Z,93992.09
2022-12-06T01:50:02.548Z,94000.56
2022-12-06T01:52:42.854Z,94002.06
2022-12-06T01:55:11.478Z,93990.41
2022-12-06T01:57:38.124Z,93993.41
2022-12-06T02:00:05.724Z,93990.00
2022-12-06T02:02:32.546Z,93990.00
2022-12-06T02:04:59.408Z,93998.47
2022-12-06T02:07:27.367Z,93992.25
2022-12-06T02:09:54.735Z,93983.69
2022-12-06T02:12:21.427Z,93983.16
2022-12-06T02:14:51.198Z,93985.97
2022-12-06T02:17:35.971Z,93983.94
2022-12-06T02:20:27.367Z,93985.84
2022-12-06T02:23:19.145Z,93983.28
2022-12-06T02:26:11.236Z,93986.69
2022-12-06T02:28:58.192Z,93988.69
2022-12-06T02:31:47.916Z,93989.16
2022-12-06T02:34:46.429Z,93980.31
2022-12-06T02:37:26.227Z,93982.44
2022-12-06T02:39:57.777Z,93977.59
2022-12-06T02:42:34.329Z,93974.78
2022-12-06T02:45:09.788Z,93976.63
2022-12-06T02:47:37.468Z,93975.72
2022-12-06T02:50:09.687Z,93973.78
2022-12-06T02:52:39.467Z,93978.56
2022-12-06T02:55:08.137Z,93972.97
2022-12-06T02:57:43.586Z,93968.38
2022-12-06T03:00:41.895Z,93971.59
2022-12-06T03:03:16.897Z,93958.91
2022-12-06T03:06:02.033Z,93973.09
2022-12-06T03:08:47.532Z,93976.22
2022-12-06T03:11:14.282Z,93963.88
2022-12-06T03:13:47.583Z,93961.38
2022-12-06T03:16:41.830Z,93961.66
2022-12-06T03:19:15.750Z,93973.22
2022-12-06T03:22:04.378Z,93971.22
2022-12-06T03:24:33.881Z,93971.44
2022-12-06T03:27:04.173Z,93976.38
2022-12-06T03:29:31.855Z,93975.47
2022-12-06T03:32:01.500Z,93975.38
2022-12-06T03:34:35.100Z,93983.78
2022-12-06T03:37:02.531Z,93983.28
2022-12-06T03:39:33.735Z,93975.19
2022-12-06T03:42:00.547Z,93983.22
2022-12-06T03:44:27.214Z,93978.44
2022-12-06T03:46:59.353Z,93969.00
2022-12-06T03:49:36.908Z,93976.25
2022-12-06T03:52:04.048Z,93977.22
2022-12-06T03:54:30.664Z,93977.19
2022-12-06T03:56:57.372Z,93968.38
2022-12-06T03:59:24.038Z,93975.97
2022-12-06T04:01:50.929Z,93967.22
2022-12-06T04:04:17.671Z,93979.91
2022-12-06T04:06:44.408Z,93974.06
2022-12-06T04:09:29.345Z,93966.81
2022-12-06T04:11:55.996Z,93969.16
2022-12-06T04:14:22.638Z,93975.72
2022-12-06T04:17:07.660Z,93974.00
2022-12-06T04:19:34.212Z,93970.00
2022-12-06T04:22:19.097Z,93970.09
2022-12-06T04:24:45.757Z,93966.38
2022-12-06T04:27:30.876Z,93969.22
2022-12-06T04:30:16.083Z,93969.50
2022-12-06T04:33:01.237Z,93971.22
2022-12-06T04:35:46.728Z,93968.38
2022-12-06T04:38:32.204Z,93976.00
2022-12-06T04:40:58.850Z,93963.88
2022-12-06T04:43:43.697Z,93966.13
2022-12-06T04:46:15.761Z,93965.00
2022-12-06T04:48:42.668Z,93959.72
2022-12-06T04:51:13.054Z,93960.56
2022-12-06T04:53:39.947Z,93954.31
2022-12-06T04:56:06.827Z,93955.56
2022-12-06T04:58:33.587Z,93952.50
2022-12-06T05:01:00.457Z,93955.22
2022-12-06T05:03:27.250Z,93956.34
2022-12-06T05:05:53.980Z,93954.09
2022-12-06T05:08:20.744Z,93959.84
2022-12-06T05:10:48.438Z,93957.44
2022-12-06T05:13:18.606Z,93944.81
2022-12-06T05:15:52.815Z,93948.50
2022-12-06T05:18:19.996Z,93944.19
2022-12-06T05:20:46.613Z,93946.44
2022-12-06T05:23:13.741Z,93946.53
2022-12-06T05:25:40.452Z,93940.53
2022-12-06T05:28:07.017Z,93946.44
2022-12-06T05:30:33.624Z,93946.53
2022-12-06T05:33:00.210Z,93943.03
2022-12-06T05:35:26.859Z,93939.34
2022-12-06T05:37:53.562Z,93946.34
2022-12-06T05:40:20.167Z,93951.81
2022-12-06T05:42:46.785Z,93947.34
2022-12-06T05:45:13.384Z,93942.91
2022-12-06T05:47:39.990Z,93946.09
2022-12-06T05:50:07.138Z,93949.00
2022-12-06T05:52:33.882Z,93957.19
2022-12-06T05:55:00.606Z,93958.16
2022-12-06T05:57:27.409Z,93955.88
2022-12-06T05:59:54.051Z,93943.63
2022-12-06T06:02:20.924Z,93954.84
2022-12-06T06:04:47.737Z,93955.34
2022-12-06T06:07:14.507Z,93963.47
2022-12-06T06:09:41.253Z,93954.28
2022-12-06T06:12:12.329Z,93953.00
2022-12-06T06:14:39.848Z,93948.53
2022-12-06T06:17:07.485Z,93949.22
2022-12-06T06:19:34.297Z,93944.78
2022-12-06T06:22:01.197Z,93940.16
2022-12-06T06:24:28.014Z,93943.88
2022-12-06T06:26:54.770Z,93950.94
2022-12-06T06:29:21.549Z,93951.72
2022-12-06T06:31:48.370Z,93956.63
2022-12-06T06:34:15.468Z,93952.69
2022-12-06T06:36:45.751Z,93960.09
2022-12-06T06:39:13.171Z,93957.38
2022-12-06T06:41:39.841Z,93962.75
2022-12-06T06:44:06.548Z,93958.59
2022-12-06T06:46:33.354Z,93955.88
2022-12-06T06:49:00.119Z,93954.28
2022-12-06T06:51:26.853Z,93959.72
2022-12-06T06:53:53.673Z,93957.63
2022-12-06T06:56:20.421Z,93960.50
2022-12-06T06:58:47.191Z,93959.94
2022-12-06T07:01:19.708Z,93960.53
2022-12-06T07:03:46.872Z,93965.63
2022-12-06T07:06:13.668Z,93965.94
2022-12-06T07:08:41.730Z,93966.53
2022-12-06T07:11:09.891Z,93957.56
2022-12-06T07:13:37.659Z,93960.44
2022-12-06T07:16:06.250Z,93966.38
2022-12-06T07:18:33.866Z,93974.53
2022-12-06T07:21:04.088Z,93978.00
2022-12-06T07:23:35.051Z,93973.84
2022-12-06T07:26:10.192Z,93966.97
2022-12-06T07:28:38.359Z,93946.28
2022-12-06T07:31:21.455Z,93971.94
2022-12-06T07:33:49.348Z,93964.13
2022-12-06T07:36:16.260Z,93965.88
2022-12-06T07:38:43.990Z,93963.69
2022-12-06T07:41:31.252Z,93962.63
2022-12-06T07:44:17.985Z,93960.78
2022-12-06T07:46:44.849Z,93978.00
2022-12-06T07:49:12.059Z,93989.38
2022-12-06T07:51:40.216Z,93995.81
2022-12-06T07:54:07.006Z,93998.72
2022-12-06T07:56:33.820Z,94029.81
2022-12-06T07:59:01.578Z,94060.78
2022-12-06T08:01:28.844Z,94078.41
2022-12-06T08:03:56.402Z,94075.63
2022-12-06T08:06:23.635Z,94068.16
2022-12-06T08:08:50.430Z,94067.22
2022-12-06T08:11:17.227Z,94058.63
2022-12-06T08:13:43.900Z,94052.78
2022-12-06T08:16:15.662Z,94057.06
2022-12-06T08:18:42.411Z,94056.13
2022-12-06T08:21:09.862Z,94048.94
2022-12-06T08:23:36.912Z,94040.94
2022-12-06T08:26:12.640Z,94048.94
2022-12-06T08:28:39.821Z,94045.75
2022-12-06T08:31:18.340Z,94036.09
2022-12-06T08:33:45.620Z,94046.00
2022-12-06T08:36:14.742Z,94038.22
2022-12-06T08:38:41.787Z,94038.06
2022-12-06T08:41:29.901Z,94039.25
2022-12-06T08:43:57.340Z,94044.03
2022-12-06T08:46:24.379Z,94040.25
2022-12-06T08:48:51.910Z,94046.19
2022-12-06T08:51:18.876Z,94055.06
2022-12-06T08:53:45.655Z,94044.56
2022-12-06T08:56:12.493Z,94048.72
2022-12-06T08:58:39.340Z,94051.94
2022-12-06T09:01:14.223Z,94052.00
2022-12-06T09:03:41.054Z,94053.81
2022-12-06T09:06:08.489Z,94062.63
2022-12-06T09:08:35.879Z,94062.81
2022-12-06T09:11:03.171Z,94062.28
2022-12-06T09:13:29.960Z,94062.13
2022-12-06T09:15:57.215Z,94067.31
2022-12-06T09:18:24.031Z,94077.34
2022-12-06T09:20:50.798Z,94072.88
2022-12-06T09:23:17.513Z,94075.19
2022-12-06T09:25:44.450Z,94073.06
2022-12-06T09:28:11.560Z,94081.78
2022-12-06T09:30:38.345Z,94064.38
2022-12-06T09:33:05.071Z,94069.03
2022-12-06T09:35:32.113Z,94075.47
2022-12-06T09:37:59.531Z,94065.19
2022-12-06T09:40:39.833Z,94066.97
2022-12-06T09:43:12.491Z,94067.13
2022-12-06T09:45:57.719Z,94047.25
2022-12-06T09:48:59.989Z,94059.16
2022-12-06T09:51:44.781Z,94057.63
2022-12-06T09:54:43.929Z,94042.78
2022-12-06T09:57:27.934Z,94041.81
2022-12-06T10:00:22.075Z,94041.41
2022-12-06T10:03:02.398Z,94040.81
2022-12-06T10:05:55.473Z,94042.47
2022-12-06T10:08:33.301Z,94036.38
2022-12-06T10:11:19.111Z,94033.59
2022-12-06T10:13:54.740Z,94035.34
2022-12-06T10:16:37.773Z,94039.72
2022-12-06T10:19:08.479Z,94034.16
2022-12-06T10:21:42.582Z,94023.22
2022-12-06T10:24:35.312Z,94017.22
2022-12-06T10:27:11.260Z,94011.94
2022-12-06T10:30:04.617Z,94020.91
2022-12-06T10:33:07.713Z,94011.81
2022-12-06T10:35:34.556Z,94009.84
2022-12-06T10:38:13.153Z,94009.03
2022-12-06T10:40:59.208Z,94006.34
2022-12-06T10:43:29.792Z,94004.13
2022-12-06T10:46:25.141Z,94005.69
2022-12-06T10:49:13.052Z,94003.66
2022-12-06T10:51:50.381Z,94008.72
2022-12-06T10:54:33.032Z,93995.81
2022-12-06T10:57:03.490Z,93995.66
2022-12-06T10:59:31.969Z,93986.97
2022-12-06T11:02:02.121Z,93981.75
2022-12-06T11:04:33.570Z,93978.44
2022-12-06T11:07:11.569Z,93976.66
2022-12-06T11:09:44.670Z,93969.84
2022-12-06T11:12:38.070Z,93976.09
2022-12-06T11:15:17.059Z,93971.78
2022-12-06T11:17:48.038Z,93957.69
2022-12-06T11:20:25.413Z,93971.41
2022-12-06T11:23:10.492Z,93955.50
2022-12-06T11:26:00.191Z,93964.53
2022-12-06T11:28:44.756Z,93951.91
2022-12-06T11:31:45.693Z,93959.56
2022-12-06T11:34:24.377Z,93955.34
2022-12-06T11:36:59.592Z,93952.41
2022-12-06T11:39:27.449Z,93956.56
2022-12-06T11:41:56.374Z,93954.91
2022-12-06T11:44:26.549Z,93939.69
2022-12-06T11:46:59.066Z,93953.75
2022-12-06T11:49:34.111Z,93957.72
2022-12-06T11:52:05.011Z,93953.44
2022-12-06T11:54:44.079Z,93953.44
2022-12-06T11:57:22.810Z,93945.78
2022-12-06T12:00:15.039Z,93949.78
2022-12-06T12:02:43.967Z,93947.53
2022-12-06T12:05:16.844Z,93943.41
2022-12-06T12:07:46.085Z,93948.06
2022-12-06T12:10:28.201Z,93946.94
2022-12-06T12:13:13.959Z,93953.47
2022-12-06T12:15:50.090Z,93941.94
2022-12-06T12:18:36.380Z,93946.81
2022-12-06T12:21:05.210Z,93942.72
2022-12-06T12:23:37.740Z,93936.22
2022-12-06T12:26:14.613Z,93948.47
2022-12-06T12:28:42.961Z,93957.78
2022-12-06T12:31:24.160Z,93957.72
2022-12-06T12:34:14.857Z,93954.09
2022-12-06T12:36:47.108Z,93949.38
2022-12-06T12:39:24.320Z,93947.16
2022-12-06T12:41:51.010Z,93947.19
2022-12-06T12:44:37.146Z,93947.63
2022-12-06T12:47:15.602Z,93933.78
2022-12-06T12:49:42.560Z,93940.28
2022-12-06T12:52:37.484Z,93936.22
2022-12-06T12:55:13.708Z,93932.75
2022-12-06T12:57:42.042Z,93927.34
2022-12-06T13:00:16.177Z,93930.19
2022-12-06T13:02:44.145Z,93932.59
2022-12-06T13:05:34.302Z,93932.94
2022-12-06T13:08:15.687Z,93923.16
2022-12-06T13:10:45.520Z,93926.50
2022-12-06T13:13:37.701Z,93921.75
2022-12-06T13:16:10.780Z,93923.25
2022-12-06T13:19:09.439Z,93922.94
2022-12-06T13:21:41.439Z,93912.84
2022-12-06T13:24:17.884Z,93918.59
2022-12-06T13:26:52.558Z,93914.34
2022-12-06T13:29:36.240Z,93920.69
2022-12-06T13:32:14.561Z,93921.88
2022-12-06T13:34:49.637Z,93926.84
2022-12-06T13:37:29.004Z,93919.09
2022-12-06T13:39:56.270Z,93909.88
2022-12-06T13:42:38.278Z,93926.22
2022-12-06T13:45:06.700Z,93933.53
2022-12-06T13:47:33.320Z,93928.56
2022-12-06T13:50:04.852Z,93930.16
2022-12-06T13:52:43.729Z,93931.28
2022-12-06T13:55:25.686Z,93926.97
2022-12-06T13:57:55.493Z,93935.97
2022-12-06T14:00:28.375Z,93941.16
2022-12-06T14:02:57.199Z,93936.56
2022-12-06T14:06:01.465Z,93945.91
2022-12-06T14:08:32.715Z,93934.59
2022-12-06T14:11:22.391Z,93944.72
2022-12-06T14:14:00.003Z,93951.66
2022-12-06T14:16:36.536Z,93938.38
2022-12-06T14:19:11.947Z,93935.19
2022-12-06T14:21:41.811Z,93951.28
2022-12-06T14:24:30.436Z,93954.94
2022-12-06T14:27:13.241Z,93945.91
2022-12-06T14:29:40.823Z,93945.28
2022-12-06T14:32:07.741Z,93945.09
2022-12-06T14:34:35.864Z,93942.53
2022-12-06T14:37:13.225Z,93942.34
2022-12-06T14:39:39.988Z,93938.09
2022-12-06T14:42:36.198Z,93938.75
2022-12-06T14:45:03.309Z,93935.72
2022-12-06T14:47:30.388Z,93938.06
2022-12-06T14:50:17.858Z,93935.13
2022-12-06T14:53:05.749Z,93936.28
2022-12-06T14:55:52.371Z,93945.13
2022-12-06T14:58:22.578Z,93945.78
2022-12-06T15:01:23.130Z,93940.38
2022-12-06T15:04:07.019Z,93941.97
2022-12-06T15:06:38.028Z,93944.34
2022-12-06T15:09:23.130Z,93939.13
2022-12-06T15:12:08.672Z,93943.41
2022-12-06T15:14:35.422Z,93941.00
2022-12-06T15:17:04.748Z,93928.78
2022-12-06T15:19:33.904Z,93929.44
2022-12-06T15:22:01.129Z,93925.19
2022-12-06T15:24:29.009Z,93930.56
2022-12-06T15:26:55.966Z,93931.72
2022-12-06T15:29:23.457Z,93924.13
2022-12-06T15:31:52.875Z,93926.88
2022-12-06T15:34:24.136Z,93929.19
2022-12-06T15:37:03.635Z,93920.06
2022-12-06T15:39:38.100Z,93922.81
2022-12-06T15:42:20.498Z,93913.69
2022-12-06T15:44:49.780Z,93917.00
2022-12-06T15:47:17.690Z,93919.34
2022-12-06T15:49:45.548Z,93908.81
2022-12-06T15:52:23.653Z,93902.19
2022-12-06T15:54:51.014Z,93904.13
2022-12-06T15:57:17.838Z,93910.56
2022-12-06T15:59:44.678Z,93896.53
2022-12-06T16:02:16.365Z,93897.56
2022-12-06T16:04:44.091Z,93895.38
2022-12-06T16:07:12.046Z,93900.94
2022-12-06T16:09:38.911Z,93887.84
2022-12-06T16:12:05.951Z,93893.34
2022-12-06T16:14:32.882Z,93872.63
2022-12-06T16:16:59.560Z,93890.69
2022-12-06T16:19:46.190Z,93883.09
2022-12-06T16:22:12.850Z,93878.56
2022-12-06T16:24:39.600Z,93870.69
2022-12-06T16:27:06.300Z,93872.03
2022-12-06T16:29:33.540Z,93870.66
2022-12-06T16:32:00.282Z,93878.84
2022-12-06T16:34:28.722Z,93871.00
2022-12-06T16:37:03.922Z,93864.53
2022-12-06T16:39:33.596Z,93866.34
2022-12-06T16:42:00.710Z,93874.94
2022-12-06T16:44:27.466Z,93867.66
2022-12-06T16:46:54.475Z,93868.13
2022-12-06T16:52:10.271Z,93861.59
2022-12-06T16:54:41.168Z,93862.63
2022-12-06T16:57:10.195Z,93861.84
2022-12-06T16:59:37.268Z,93866.34
2022-12-06T17:02:07.197Z,93872.72
2022-12-06T17:04:36.939Z,93874.69
2022-12-06T17:07:03.621Z,93872.53
2022-12-06T17:09:30.472Z,93868.13
2022-12-06T17:12:03.515Z,93860.50
2022-12-06T17:14:30.488Z,93862.16
2022-12-06T17:16:59.228Z,93866.94
2022-12-06T17:19:28.310Z,93865.75
2022-12-06T17:21:55.321Z,93858.88
2022-12-06T17:24:24.265Z,93861.72
2022-12-06T17:26:51.027Z,93868.47
2022-12-06T17:29:17.753Z,93855.44
2022-12-06T17:31:44.646Z,93861.00
2022-12-06T17:34:14.278Z,93859.78
2022-12-06T17:36:41.391Z,93847.00
2022-12-06T17:39:13.541Z,93849.75
2022-12-06T17:41:58.728Z,93850.72
2022-12-06T17:44:25.453Z,93845.34
2022-12-06T17:46:52.244Z,93840.19
2022-12-06T17:49:24.380Z,93844.63
2022-12-06T17:51:51.669Z,93851.34
2022-12-06T17:54:19.529Z,93836.84
2022-12-06T17:56:47.940Z,93854.81
2022-12-06T17:59:23.412Z,93853.66
2022-12-06T18:04:38.018Z,93855.63
2022-12-06T18:07:04.823Z,93864.59
2022-12-06T18:09:31.608Z,93869.78
2022-12-06T18:12:01.214Z,93861.47
2022-12-06T18:14:28.362Z,93871.34
2022-12-06T18:16:55.835Z,93865.19
2022-12-06T18:19:23.421Z,93857.38
2022-12-06T18:21:52.326Z,93854.09
2022-12-06T18:24:22.126Z,93850.53
2022-12-06T18:26:51.197Z,93853.53
2022-12-06T18:29:22.999Z,93850.28
2022-12-06T18:31:50.113Z,93854.88
2022-12-06T18:34:17.595Z,93851.94
2022-12-06T18:36:44.345Z,93851.00
2022-12-06T18:39:15.315Z,93848.81
2022-12-06T18:41:43.590Z,93849.50
2022-12-06T18:44:11.010Z,93849.41
2022-12-06T18:46:39.193Z,93848.03
2022-12-06T18:49:10.549Z,93844.47
2022-12-06T18:51:41.938Z,93846.03
2022-12-06T18:54:11.815Z,93854.38
2022-12-06T18:56:39.086Z,93855.22
2022-12-06T18:59:07.755Z,93851.50
2022-12-06T19:01:38.740Z,93853.03
2022-12-06T19:04:08.334Z,93850.59
2022-12-06T19:06:40.995Z,93845.31
2022-12-06T19:09:15.844Z,93841.66
2022-12-06T19:11:46.478Z,93851.66
2022-12-06T19:14:14.617Z,93827.78
2022-12-06T19:16:46.556Z,93842.63
2022-12-06T19:19:17.210Z,93842.56
2022-12-06T19:21:47.754Z,93834.84
2022-12-06T19:24:17.262Z,93842.56
2022-12-06T19:26:44.866Z,93834.81
2022-12-06T19:29:17.999Z,93843.00
2022-12-06T19:31:50.622Z,93819.50
2022-12-06T19:34:24.365Z,93836.97
2022-12-06T19:36:53.482Z,93840.44
2022-12-06T19:39:23.222Z,93841.84
2022-12-06T19:42:12.501Z,93841.09
2022-12-06T19:44:40.944Z,93841.00
2022-12-06T19:47:09.463Z,93836.50
2022-12-06T19:49:37.251Z,93844.44
2022-12-06T19:52:09.195Z,93834.38
2022-12-06T19:54:37.860Z,93838.97
2022-12-06T19:57:05.238Z,93846.97
2022-12-06T19:59:34.671Z,93850.19
2022-12-06T20:02:02.640Z,93852.59
2022-12-06T20:04:35.440Z,93849.75
2022-12-06T20:07:02.805Z,93847.03
2022-12-06T20:09:32.522Z,93844.09
2022-12-06T20:12:01.333Z,93836.75
2022-12-06T20:14:35.758Z,93844.28
2022-12-06T20:17:10.397Z,93839.19
2022-12-06T20:19:39.664Z,93819.88
2022-12-06T20:22:06.440Z,93833.94
2022-12-06T20:24:33.538Z,93822.50
2022-12-06T20:27:01.509Z,93819.81
2022-12-06T20:29:30.365Z,93815.69
2022-12-06T20:32:00.498Z,93816.16
2022-12-06T20:34:30.188Z,93824.47
2022-12-06T20:36:57.278Z,93820.31
2022-12-06T20:39:26.900Z,93824.47
2022-12-06T20:41:54.228Z,93822.69
2022-12-06T20:44:21.369Z,93821.63
2022-12-06T20:46:53.598Z,93826.50
2022-12-06T20:49:20.462Z,93829.06
2022-12-06T20:51:52.678Z,93826.31
2022-12-06T20:54:20.095Z,93830.22
2022-12-06T20:56:47.269Z,93828.09
2022-12-06T20:59:14.109Z,93826.59
2022-12-06T21:01:41.660Z,93813.50
2022-12-06T21:04:10.372Z,93832.16
2022-12-06T21:06:37.003Z,93825.34
2022-12-06T21:09:03.822Z,93826.84
2022-12-06T21:11:30.586Z,93814.59
2022-12-06T21:13:58.097Z,93820.25
2022-12-06T21:16:29.719Z,93827.50
2022-12-06T21:19:00.723Z,93830.19
2022-12-06T21:21:34.428Z,93835.66
2022-12-06T21:24:03.261Z,93830.44
2022-12-06T21:26:30.439Z,93835.38
2022-12-06T21:28:57.613Z,93840.94
2022-12-06T21:31:50.536Z,93840.09
2022-12-06T21:34:17.788Z,93838.66
2022-12-06T21:36:44.899Z,93842.09
2022-12-06T21:39:12.729Z,93849.88
2022-12-06T21:41:39.464Z,93844.94
2022-12-06T21:44:06.843Z,93842.72
2022-12-06T21:46:33.631Z,93838.66
2022-12-06T21:49:00.744Z,93844.13
2022-12-06T21:51:30.179Z,93843.34
2022-12-06T21:53:57.273Z,93843.16
2022-12-06T21:56:26.309Z,93846.34
2022-12-06T21:58:53.086Z,93846.06
2022-12-06T22:01:22.196Z,93847.06
2022-12-06T22:03:50.006Z,93842.47
2022-12-06T22:06:17.019Z,93844.25
2022-12-06T22:08:44.547Z,93849.00
2022-12-06T22:11:14.109Z,93838.16
2022-12-06T22:13:41.281Z,93846.16
2022-12-06T22:16:09.759Z,93838.03
2022-12-06T22:18:44.034Z,93857.94
2022-12-06T22:21:24.721Z,93845.91
2022-12-06T22:23:51.934Z,93848.41
2022-12-06T22:26:21.342Z,93841.16
2022-12-06T22:28:48.940Z,93842.38
2022-12-06T22:31:21.702Z,93840.19
2022-12-06T22:33:49.537Z,93842.84
2022-12-06T22:36:16.310Z,93840.69
2022-12-06T22:38:43.745Z,93839.03
2022-12-06T22:41:10.702Z,93836.91
2022-12-06T22:43:37.467Z,93838.84
2022-12-06T22:46:10.112Z,93843.09
2022-12-06T22:48:37.246Z,93838.84
2022-12-06T22:51:13.992Z,93827.25
2022-12-06T22:53:42.294Z,93834.78
2022-12-06T22:56:09.247Z,93830.00
2022-12-06T22:58:36.226Z,93837.69
2022-12-06T23:01:17.459Z,93831.72
2022-12-06T23:03:48.703Z,93836.91
2022-12-06T23:06:17.310Z,93828.25
2022-12-06T23:08:44.050Z,93829.66
2022-12-06T23:11:13.229Z,93827.63
2022-12-06T23:13:40.330Z,93829.84
2022-12-06T23:16:10.797Z,93827.28
2022-12-06T23:18:37.433Z,93818.88
2022-12-06T23:21:28.191Z,93816.22
2022-12-06T23:23:58.864Z,93807.31
2022-12-06T23:26:28.252Z,93816.22
2022-12-06T23:28:54.837Z,93814.81
2022-12-06T23:31:24.306Z,93802.81
2022-12-06T23:33:55.994Z,93805.94
2022-12-06T23:36:25.246Z,93809.31
2022-12-06T23:38:52.762Z,93807.94
2022-12-06T23:41:21.583Z,93795.47
2022-12-06T23:43:48.313Z,93794.09
2022-12-06T23:46:22.443Z,93800.25
2022-12-06T23:48:50.367Z,93791.38
2022-12-06T23:51:19.354Z,93790.50
2022-12-06T23:53:49.920Z,93792.38
2022-12-06T23:56:18.136Z,93802.63
2022-12-06T23:58:45.333Z,93793.44
